Terminal Aerodrome Forecast
Issued by NWS

Home | Current Version | Previous Version | Text Only | Print | Product List | Glossary On
Versions: 1 2 3 4 5 6 7 8 9 10 11 12 13 14 15 16 17 18 19 20 21 22 23 24 25 26
000
FTUS43 KGRR 220500 AAA
TAFLAN
TAF AMD
KLAN 220541Z 2206/2306 01004KT P6SM BKN020
     FM221400 03006KT P6SM SCT035
     FM222200 05003KT P6SM SKC=

USA.gov is the U.S. government's official web portal to all federal, state and local government web resources and services.